Time;durP1;ratioP1;P1;durP2;ratioP2;P2;SDS_P1;SDS_P2;PMS_P1;PMS_P2;Temp;Humidity;BMP_temperature;BMP_pressure;BME280_temperature;BME280_humidity;BME280_pressure;Samples;Min_cycle;Max_cycle;Signal;HPM_P1;HPM_P2
2023/02/26 00:01:14;;;;;;;2.25;0.98;;;4.70;91.70;;;;;;4694990;30;20044;-79
2023/02/26 00:03:41;;;;;;;3.40;0.90;;;4.70;91.70;;;;;;4679597;30;20202;-80
2023/02/26 00:06:09;;;;;;;3.45;1.35;;;4.80;91.80;;;;;;4694920;30;22418;-80
2023/02/26 00:08:36;;;;;;;3.67;1.08;;;4.80;91.70;;;;;;4726138;30;20056;-80
2023/02/26 00:11:09;;;;;;;3.95;1.00;;;4.90;91.80;;;;;;4698358;30;20057;-80
2023/02/26 00:13:38;;;;;;;2.53;1.38;;;4.80;91.70;;;;;;4718883;30;20072;-80
2023/02/26 00:16:32;;;;;;;3.33;0.80;;;4.60;91.70;;;;;;4696922;30;20090;-80
2023/02/26 00:19:03;;;;;;;3.22;1.05;;;4.60;91.90;;;;;;4697672;30;20072;-80
2023/02/26 00:21:32;;;;;;;2.75;1.10;;;4.70;92.00;;;;;;4698763;30;20064;-79
2023/02/26 00:24:00;;;;;;;4.82;1.10;;;4.60;92.00;;;;;;4698440;30;20060;-80
2023/02/26 00:26:30;;;;;;;5.03;1.77;;;4.60;92.10;;;;;;4677236;30;20060;-80
2023/02/26 00:28:58;;;;;;;5.53;1.90;;;4.70;92.00;;;;;;4696066;30;20065;-80
2023/02/26 00:31:26;;;;;;;6.57;2.13;;;4.60;92.20;;;;;;4698580;30;20638;-80
2023/02/26 00:33:56;;;;;;;15.48;4.00;;;4.50;92.30;;;;;;4674725;30;20686;-80
2023/02/26 00:36:47;;;;;;;8.00;2.58;;;4.50;92.40;;;;;;4700600;30;20718;-80
2023/02/26 00:39:29;;;;;;;5.05;1.88;;;4.50;92.60;;;;;;4713428;30;20071;-80
2023/02/26 00:41:56;;;;;;;5.80;2.55;;;4.40;92.50;;;;;;4706479;30;20061;-80
2023/02/26 00:44:24;;;;;;;3.58;1.90;;;4.40;92.70;;;;;;4701717;30;20057;-80
2023/02/26 00:47:16;;;;;;;2.78;1.48;;;4.40;92.60;;;;;;4701262;30;20069;-80
2023/02/26 00:49:52;;;;;;;9.18;2.80;;;4.40;92.70;;;;;;4676977;30;20064;-80
2023/02/26 00:52:31;;;;;;;4.25;1.67;;;4.50;92.90;;;;;;4716426;30;20069;-79
2023/02/26 00:54:58;;;;;;;5.20;1.85;;;4.50;92.60;;;;;;4688987;30;20858;-80
2023/02/26 00:57:25;;;;;;;8.95;3.00;;;4.40;92.60;;;;;;4702412;30;20044;-80
2023/02/26 00:59:52;;;;;;;5.05;2.00;;;4.40;92.70;;;;;;4700573;30;20118;-79
2023/02/26 01:02:19;;;;;;;6.50;2.30;;;4.30;92.70;;;;;;4696114;30;20556;-80
2023/02/26 01:04:47;;;;;;;4.97;1.75;;;4.40;92.70;;;;;;4717647;30;20068;-79
2023/02/26 01:07:16;;;;;;;4.53;1.77;;;4.30;92.80;;;;;;4694863;30;20067;-80
2023/02/26 01:09:44;;;;;;;3.67;1.38;;;4.30;92.60;;;;;;4696936;30;20064;-80
2023/02/26 01:12:12;;;;;;;3.40;1.63;;;4.30;92.80;;;;;;4708365;30;20461;-80
2023/02/26 01:14:40;;;;;;;7.35;3.20;;;4.40;92.90;;;;;;4696389;30;20092;-80
2023/02/26 01:17:26;;;;;;;6.07;1.83;;;4.20;92.70;;;;;;4671721;30;20055;-80
2023/02/26 01:20:15;;;;;;;3.35;1.30;;;4.30;92.90;;;;;;4695128;30;20061;-80
2023/02/26 01:23:06;;;;;;;3.40;1.35;;;4.30;92.90;;;;;;4700341;30;20064;-80
2023/02/26 01:25:46;;;;;;;3.13;1.17;;;4.30;92.80;;;;;;4687881;30;20064;-79
2023/02/26 01:28:14;;;;;;;3.08;1.40;;;4.40;92.80;;;;;;4718561;30;20065;-79
2023/02/26 01:30:41;;;;;;;5.90;3.03;;;4.40;92.70;;;;;;4692304;30;20508;-80
2023/02/26 01:33:23;;;;;;;4.10;1.73;;;4.40;92.60;;;;;;4697476;30;22379;-79
2023/02/26 01:36:12;;;;;;;5.00;2.17;;;4.40;92.60;;;;;;4702936;30;20210;-79
2023/02/26 01:39:05;;;;;;;5.10;1.95;;;4.30;92.70;;;;;;4686892;30;20702;-80
2023/02/26 01:41:38;;;;;;;4.00;1.95;;;4.30;92.80;;;;;;4698411;30;20064;-80
2023/02/26 01:44:33;;;;;;;8.98;2.42;;;4.40;92.80;;;;;;4719421;30;20887;-80
2023/02/26 01:47:15;;;;;;;4.28;1.45;;;4.40;92.90;;;;;;4714263;30;20060;-79
2023/02/26 01:49:43;;;;;;;3.88;1.20;;;4.30;92.70;;;;;;4691312;30;20505;-80
2023/02/26 01:52:48;;;;;;;4.78;1.90;;;4.40;93.00;;;;;;4700510;30;20529;-79
2023/02/26 01:55:21;;;;;;;5.53;2.05;;;4.40;92.60;;;;;;4705699;30;20052;-80
2023/02/26 01:57:51;;;;;;;6.50;2.65;;;4.40;92.50;;;;;;4701954;30;20056;-80
2023/02/26 02:00:19;;;;;;;4.40;1.95;;;4.50;92.50;;;;;;4698267;30;20061;-80
2023/02/26 02:02:48;;;;;;;4.22;1.75;;;4.50;92.40;;;;;;4709847;30;20057;-80
2023/02/26 02:05:26;;;;;;;2.67;1.23;;;4.50;92.40;;;;;;4698096;30;20052;-80
2023/02/26 02:07:55;;;;;;;3.58;2.20;;;4.50;92.50;;;;;;4684429;30;20123;-80
2023/02/26 02:10:24;;;;;;;4.22;2.30;;;4.50;92.50;;;;;;4701019;30;20098;-80
2023/02/26 02:13:12;;;;;;;6.28;2.70;;;4.50;92.30;;;;;;4712156;30;20051;-80
2023/02/26 02:16:10;;;;;;;4.47;2.08;;;4.30;92.40;;;;;;4719525;30;20084;-80
2023/02/26 02:18:48;;;;;;;2.47;1.38;;;4.20;92.40;;;;;;4705955;30;20052;-79
2023/02/26 02:21:46;;;;;;;3.75;1.40;;;4.20;92.50;;;;;;4699055;30;20094;-79
2023/02/26 02:24:37;;;;;;;7.75;3.03;;;4.10;92.60;;;;;;4697187;30;20149;-79
2023/02/26 02:27:18;;;;;;;4.32;1.98;;;4.00;92.60;;;;;;4677535;30;20069;-79
2023/02/26 02:30:01;;;;;;;3.90;2.15;;;4.00;92.70;;;;;;4691028;30;20082;-79
2023/02/26 02:32:59;;;;;;;5.53;2.40;;;4.00;92.60;;;;;;4693231;30;20064;-79
2023/02/26 02:35:36;;;;;;;4.70;2.28;;;4.00;92.70;;;;;;4669063;30;20107;-80
2023/02/26 02:38:10;;;;;;;3.50;1.70;;;3.90;92.60;;;;;;4699611;30;20064;-80
2023/02/26 02:40:46;;;;;;;4.63;1.55;;;3.90;92.60;;;;;;4685741;30;20057;-79
2023/02/26 02:43:24;;;;;;;6.68;2.70;;;4.00;92.60;;;;;;4718888;30;20501;-80
2023/02/26 02:46:07;;;;;;;4.53;2.25;;;3.90;92.50;;;;;;4708061;30;20057;-80
2023/02/26 02:48:44;;;;;;;3.85;1.67;;;3.90;92.50;;;;;;4695551;30;20094;-80
2023/02/26 02:51:22;;;;;;;5.03;1.63;;;3.90;92.60;;;;;;4682278;30;20060;-80
2023/02/26 02:54:25;;;;;;;4.95;1.92;;;3.90;92.90;;;;;;4680812;30;20142;-80
2023/02/26 02:57:26;;;;;;;3.60;1.85;;;3.90;92.60;;;;;;4708871;30;20154;-79
2023/02/26 02:59:58;;;;;;;4.28;1.98;;;3.90;92.40;;;;;;4689750;30;20090;-80
2023/02/26 03:02:32;;;;;;;5.10;2.08;;;3.90;92.60;;;;;;4693786;30;20421;-80
2023/02/26 03:04:59;;;;;;;3.83;2.38;;;3.80;92.60;;;;;;4723529;30;20476;-79
2023/02/26 03:07:32;;;;;;;4.88;2.00;;;3.80;92.60;;;;;;4702898;30;20537;-80
2023/02/26 03:09:59;;;;;;;5.15;1.85;;;3.80;92.50;;;;;;4696059;30;20052;-80
2023/02/26 03:12:30;;;;;;;3.95;1.40;;;3.90;92.70;;;;;;4696262;30;20044;-80
2023/02/26 03:14:58;;;;;;;3.95;1.65;;;3.90;92.60;;;;;;4714591;30;20087;-80
2023/02/26 03:17:31;;;;;;;4.55;1.52;;;4.00;92.70;;;;;;4701658;30;20064;-79
2023/02/26 03:20:18;;;;;;;3.55;1.73;;;4.00;92.50;;;;;;4708256;30;20053;-80
2023/02/26 03:23:04;;;;;;;2.97;1.58;;;4.00;92.20;;;;;;4727817;30;20088;-80
2023/02/26 03:25:42;;;;;;;4.35;2.10;;;3.90;92.30;;;;;;4676157;30;20057;-80
2023/02/26 03:28:30;;;;;;;3.65;1.20;;;4.00;92.40;;;;;;4687171;30;20084;-80
2023/02/26 03:31:02;;;;;;;4.07;1.58;;;4.00;92.30;;;;;;4678598;30;20060;-80
2023/02/26 03:33:53;;;;;;;4.32;1.70;;;4.00;92.30;;;;;;4671813;30;20060;-80
2023/02/26 03:36:27;;;;;;;4.05;1.55;;;4.10;92.70;;;;;;4696807;30;20096;-80
2023/02/26 03:39:22;;;;;;;3.88;1.23;;;4.10;92.40;;;;;;4718817;30;20115;-80
2023/02/26 03:42:31;;;;;;;4.75;1.85;;;4.10;92.40;;;;;;4719960;30;20090;-79
2023/02/26 03:45:10;;;;;;;4.43;1.50;;;3.90;92.20;;;;;;4667195;30;20243;-80
2023/02/26 03:47:41;;;;;;;3.47;1.92;;;3.90;92.40;;;;;;4697728;30;20749;-80
2023/02/26 03:50:39;;;;;;;4.28;1.50;;;3.90;92.40;;;;;;4709795;30;20057;-79
2023/02/26 03:54:00;;;;;;;2.95;1.83;;;3.90;92.60;;;;;;4690989;30;20505;-80
2023/02/26 03:56:36;;;;;;;4.93;1.75;;;3.90;92.50;;;;;;4679829;30;20502;-79
2023/02/26 03:59:03;;;;;;;4.20;2.00;;;3.90;92.60;;;;;;4697734;30;20071;-79
2023/02/26 04:02:17;;;;;;;3.28;1.60;;;3.90;92.60;;;;;;4717586;30;20069;-79
2023/02/26 04:04:57;;;;;;;4.40;1.98;;;3.80;92.70;;;;;;4698092;30;20088;-79
2023/02/26 04:07:25;;;;;;;3.90;1.60;;;3.80;92.80;;;;;;4679848;30;20206;-79
2023/02/26 04:09:52;;;;;;;4.40;1.98;;;3.80;93.00;;;;;;4699638;30;20068;-79
2023/02/26 04:12:26;;;;;;;3.97;1.65;;;3.80;93.10;;;;;;4709072;30;20052;-79
2023/02/26 04:14:56;;;;;;;5.07;1.80;;;3.90;93.00;;;;;;4697975;30;20202;-79
2023/02/26 04:17:24;;;;;;;3.63;1.40;;;4.00;93.10;;;;;;4693890;30;20057;-79
2023/02/26 04:19:51;;;;;;;4.18;1.95;;;4.00;93.40;;;;;;4698563;30;20069;-79
2023/02/26 04:22:18;;;;;;;3.58;1.50;;;4.00;93.40;;;;;;4700976;30;20740;-79
2023/02/26 04:24:45;;;;;;;9.48;4.03;;;3.90;93.20;;;;;;4709937;30;20514;-79
2023/02/26 04:27:14;;;;;;;6.63;2.80;;;3.90;93.40;;;;;;4695222;30;20071;-79
2023/02/26 04:29:41;;;;;;;4.63;1.80;;;3.90;93.40;;;;;;4673700;30;20064;-82
2023/02/26 04:32:08;;;;;;;5.32;2.60;;;3.80;93.60;;;;;;4696142;30;20459;-79
2023/02/26 04:34:35;;;;;;;7.28;2.50;;;3.80;94.00;;;;;;4683198;30;20096;-78
2023/02/26 04:37:03;;;;;;;5.63;2.72;;;3.80;94.20;;;;;;4694900;30;20411;-80
2023/02/26 04:39:30;;;;;;;4.90;2.17;;;3.80;94.20;;;;;;4696529;30;20068;-80
2023/02/26 04:41:57;;;;;;;7.32;3.03;;;3.80;94.30;;;;;;4713217;30;20069;-80
2023/02/26 04:44:24;;;;;;;5.78;2.70;;;3.70;94.40;;;;;;4695675;30;20574;-80
2023/02/26 04:46:52;;;;;;;5.80;2.13;;;3.70;94.60;;;;;;4679449;30;20782;-79
2023/02/26 04:49:19;;;;;;;7.57;2.78;;;3.70;95.00;;;;;;4690427;30;20829;-79
2023/02/26 04:51:46;;;;;;;3.42;1.85;;;3.70;95.10;;;;;;4691239;30;20233;-80
2023/02/26 04:54:15;;;;;;;4.43;2.17;;;3.60;95.10;;;;;;4664728;30;20120;-80
2023/02/26 04:56:42;;;;;;;6.20;2.53;;;3.60;95.30;;;;;;4693238;30;20053;-79
2023/02/26 04:59:09;;;;;;;5.50;2.13;;;3.60;95.40;;;;;;4710883;30;20310;-79
2023/02/26 05:01:36;;;;;;;6.15;2.97;;;3.60;95.30;;;;;;4678775;30;20503;-80
2023/02/26 05:04:06;;;;;;;5.45;2.40;;;3.60;95.40;;;;;;4681468;30;20061;-80
2023/02/26 05:06:34;;;;;;;5.47;2.60;;;3.60;95.40;;;;;;4691963;30;20633;-80
2023/02/26 05:09:01;;;;;;;4.00;2.00;;;3.60;95.40;;;;;;4704687;30;20559;-79
2023/02/26 05:11:29;;;;;;;5.75;2.40;;;3.60;95.60;;;;;;4692188;30;20274;-79
2023/02/26 05:13:56;;;;;;;3.72;1.90;;;3.60;95.60;;;;;;4703323;30;20833;-80
2023/02/26 05:16:24;;;;;;;4.82;2.40;;;3.60;95.70;;;;;;4690482;30;20063;-79
2023/02/26 05:18:51;;;;;;;5.07;2.10;;;3.70;95.70;;;;;;4695583;30;22500;-79
2023/02/26 05:21:20;;;;;;;5.45;2.10;;;3.60;95.60;;;;;;4694371;30;20545;-80
2023/02/26 05:23:49;;;;;;;6.25;2.70;;;3.60;95.50;;;;;;4684546;30;20866;-79
2023/02/26 05:26:16;;;;;;;6.30;2.80;;;3.60;95.80;;;;;;4696192;30;20060;-80
2023/02/26 05:28:44;;;;;;;6.28;2.80;;;3.60;95.80;;;;;;4704694;30;20873;-79
2023/02/26 05:31:12;;;;;;;5.82;2.35;;;3.50;95.70;;;;;;4677566;30;20849;-80
2023/02/26 05:33:40;;;;;;;6.15;3.05;;;3.50;95.90;;;;;;4693298;30;20064;-79
2023/02/26 05:36:08;;;;;;;11.02;3.67;;;3.40;95.90;;;;;;4691097;30;20061;-80
2023/02/26 05:38:35;;;;;;;18.80;6.78;;;3.50;96.10;;;;;;4688376;30;20095;-79
2023/02/26 05:41:02;;;;;;;13.60;5.00;;;3.50;95.90;;;;;;4690221;30;20897;-80
2023/02/26 05:43:29;;;;;;;8.73;3.65;;;3.50;96.00;;;;;;4691824;30;20084;-79
2023/02/26 05:45:57;;;;;;;7.13;2.60;;;3.40;96.00;;;;;;4698921;30;20530;-80
2023/02/26 05:48:24;;;;;;;7.03;3.08;;;3.40;96.20;;;;;;4715759;30;20536;-79
2023/02/26 05:50:51;;;;;;;7.22;2.97;;;3.30;96.30;;;;;;4678989;30;20440;-79
2023/02/26 05:53:18;;;;;;;5.93;2.72;;;3.30;96.60;;;;;;4681609;30;20061;-80
2023/02/26 05:55:45;;;;;;;4.70;2.05;;;3.40;96.90;;;;;;4676502;30;20429;-79
2023/02/26 05:58:13;;;;;;;5.47;2.58;;;3.30;96.70;;;;;;4691292;30;20655;-79
2023/02/26 06:00:40;;;;;;;5.18;2.30;;;3.30;97.00;;;;;;4656143;30;20083;-80
2023/02/26 06:03:07;;;;;;;7.00;2.40;;;3.20;97.00;;;;;;4695947;30;20057;-79
2023/02/26 06:05:35;;;;;;;5.55;2.08;;;3.30;97.20;;;;;;4671843;30;20562;-79
2023/02/26 06:08:04;;;;;;;13.77;4.72;;;3.30;97.00;;;;;;4692843;30;20817;-79
2023/02/26 06:10:31;;;;;;;6.38;2.50;;;3.30;96.70;;;;;;4695086;30;20057;-80
2023/02/26 06:12:59;;;;;;;9.55;3.63;;;3.30;96.90;;;;;;4698658;30;20045;-80
2023/02/26 06:15:26;;;;;;;5.63;2.55;;;3.30;96.90;;;;;;4691095;30;20542;-80
2023/02/26 06:17:53;;;;;;;6.53;2.58;;;3.30;96.90;;;;;;4694369;30;20152;-80
2023/02/26 06:20:20;;;;;;;5.75;2.38;;;3.30;97.10;;;;;;4716425;30;20061;-80
2023/02/26 06:22:47;;;;;;;6.55;2.92;;;3.30;96.90;;;;;;4725607;30;20428;-79
2023/02/26 06:25:15;;;;;;;5.75;2.53;;;3.30;97.20;;;;;;4706312;30;20079;-79
2023/02/26 06:27:42;;;;;;;6.78;3.90;;;3.30;97.10;;;;;;4693712;30;20097;-80
2023/02/26 06:30:10;;;;;;;7.65;2.90;;;3.30;97.20;;;;;;4677910;30;20761;-80
2023/02/26 06:32:37;;;;;;;10.30;3.70;;;3.30;97.60;;;;;;4680850;30;20059;-79
2023/02/26 06:35:05;;;;;;;8.07;3.30;;;3.50;97.40;;;;;;4667029;30;20056;-79
2023/02/26 06:37:32;;;;;;;7.50;3.45;;;3.50;97.30;;;;;;4669338;30;20770;-80
2023/02/26 06:39:59;;;;;;;7.43;3.40;;;3.50;97.10;;;;;;4698467;30;20103;-80
2023/02/26 06:42:27;;;;;;;6.30;2.83;;;3.60;97.10;;;;;;4682010;30;20053;-79
2023/02/26 06:44:56;;;;;;;6.88;3.10;;;3.60;97.00;;;;;;4696387;30;20143;-79
2023/02/26 06:47:23;;;;;;;7.68;3.05;;;3.50;96.80;;;;;;4693079;30;20075;-80
2023/02/26 06:49:50;;;;;;;9.55;3.72;;;3.40;96.80;;;;;;4679137;30;20048;-79
2023/02/26 06:52:18;;;;;;;12.70;5.10;;;3.60;97.10;;;;;;4680287;30;20064;-80
2023/02/26 06:54:45;;;;;;;11.77;4.03;;;3.60;96.80;;;;;;4671261;30;20049;-79
2023/02/26 06:57:12;;;;;;;11.27;4.25;;;3.60;96.90;;;;;;4665178;30;20071;-80
2023/02/26 06:59:39;;;;;;;9.38;3.72;;;3.70;97.00;;;;;;4665675;30;20061;-80
2023/02/26 07:02:10;;;;;;;8.75;3.72;;;3.70;96.90;;;;;;4688867;30;20057;-79
2023/02/26 07:04:37;;;;;;;6.75;3.10;;;3.70;96.80;;;;;;4694290;30;20057;-81
2023/02/26 07:07:04;;;;;;;5.72;2.55;;;3.70;96.90;;;;;;4695139;30;20060;-80
2023/02/26 07:09:31;;;;;;;10.63;5.45;;;3.70;96.70;;;;;;4694843;30;22734;-80
2023/02/26 07:11:58;;;;;;;10.18;5.35;;;3.80;96.80;;;;;;4688095;30;20057;-80
2023/02/26 07:14:25;;;;;;;8.75;4.63;;;3.70;96.80;;;;;;4673851;30;20092;-80
2023/02/26 07:16:52;;;;;;;8.13;4.63;;;3.60;96.90;;;;;;4684889;30;20892;-80
2023/02/26 07:19:20;;;;;;;9.88;4.30;;;3.80;97.10;;;;;;4685674;30;20226;-80
2023/02/26 07:21:47;;;;;;;9.15;4.60;;;3.80;96.80;;;;;;4688455;30;21024;-80
2023/02/26 07:24:15;;;;;;;9.93;4.55;;;3.80;96.60;;;;;;4689357;30;20068;-79
2023/02/26 07:26:42;;;;;;;5.78;3.22;;;3.90;96.90;;;;;;4689808;30;20061;-79
2023/02/26 07:29:09;;;;;;;7.47;3.97;;;3.90;96.40;;;;;;4700570;30;20077;-80
2023/02/26 07:31:36;;;;;;;8.35;4.05;;;4.00;96.20;;;;;;4695915;30;20056;-80
2023/02/26 07:34:03;;;;;;;7.72;3.67;;;4.10;96.20;;;;;;4709938;30;20096;-80
2023/02/26 07:36:30;;;;;;;7.13;3.25;;;4.00;95.90;;;;;;4701791;30;20790;-80
2023/02/26 07:38:57;;;;;;;5.90;2.65;;;4.00;95.90;;;;;;4688595;30;20068;-80
2023/02/26 07:41:24;;;;;;;5.75;3.03;;;4.10;95.80;;;;;;4700529;30;20130;-80
2023/02/26 07:43:51;;;;;;;7.80;4.32;;;4.00;95.50;;;;;;4691109;30;20052;-80
2023/02/26 07:46:18;;;;;;;6.57;3.67;;;4.00;95.10;;;;;;4706475;30;20057;-80
2023/02/26 07:48:46;;;;;;;7.75;3.80;;;4.00;94.70;;;;;;4684284;30;20071;-80
2023/02/26 07:51:13;;;;;;;9.63;4.50;;;4.10;95.00;;;;;;4691389;30;20064;-80
2023/02/26 07:53:40;;;;;;;8.30;3.75;;;4.30;94.70;;;;;;4705278;30;20052;-80
2023/02/26 07:56:08;;;;;;;9.68;4.25;;;4.40;94.40;;;;;;4699116;30;20076;-80
2023/02/26 07:58:35;;;;;;;9.82;3.15;;;4.40;94.10;;;;;;4705816;30;20065;-80
2023/02/26 08:01:03;;;;;;;10.98;5.22;;;4.40;94.10;;;;;;4667141;30;20074;-80
2023/02/26 08:03:31;;;;;;;10.40;4.18;;;4.40;93.70;;;;;;4710272;30;20045;-80
2023/02/26 08:06:01;;;;;;;13.82;5.97;;;4.40;94.00;;;;;;4678775;30;20052;-80
2023/02/26 08:08:28;;;;;;;9.02;4.22;;;4.40;93.80;;;;;;4718945;30;20057;-80
2023/02/26 08:10:58;;;;;;;9.52;3.63;;;4.50;93.80;;;;;;4700698;30;20061;-80
2023/02/26 08:13:26;;;;;;;8.45;3.95;;;4.50;93.60;;;;;;4683618;30;20052;-79
2023/02/26 08:15:53;;;;;;;10.50;4.43;;;4.50;93.40;;;;;;4697848;30;20056;-80
2023/02/26 08:18:20;;;;;;;9.25;4.40;;;4.50;93.00;;;;;;4711760;30;20060;-80
2023/02/26 08:20:51;;;;;;;7.20;3.50;;;4.50;92.90;;;;;;4694219;30;20060;-82
2023/02/26 08:23:18;;;;;;;10.27;4.57;;;4.60;92.20;;;;;;4715998;30;20951;-82
2023/02/26 08:25:45;;;;;;;7.75;3.35;;;4.60;92.20;;;;;;4687633;30;20061;-81
2023/02/26 08:28:13;;;;;;;6.97;3.55;;;4.70;92.00;;;;;;4680364;30;22485;-82
2023/02/26 08:30:40;;;;;;;12.95;3.70;;;4.70;91.70;;;;;;4685922;30;20137;-80
2023/02/26 08:33:07;;;;;;;6.45;2.45;;;4.80;91.60;;;;;;4684258;30;20059;-82
2023/02/26 08:35:34;;;;;;;6.35;2.80;;;4.70;91.20;;;;;;4685255;30;20118;-80
2023/02/26 08:38:01;;;;;;;5.57;2.78;;;4.70;91.10;;;;;;4680926;30;20682;-81
2023/02/26 08:40:28;;;;;;;6.47;2.83;;;4.70;90.90;;;;;;4672049;30;20065;-81
2023/02/26 08:42:56;;;;;;;5.45;3.10;;;4.70;91.10;;;;;;4685951;30;20586;-82
2023/02/26 08:45:26;;;;;;;6.90;3.40;;;4.80;91.10;;;;;;4679776;30;20159;-82
2023/02/26 08:47:54;;;;;;;5.03;2.40;;;4.80;91.10;;;;;;4678653;30;20067;-82
2023/02/26 08:50:24;;;;;;;6.13;2.40;;;4.80;90.90;;;;;;4679206;30;20060;-82
2023/02/26 08:52:52;;;;;;;6.70;3.15;;;4.80;90.90;;;;;;4688638;30;20146;-82
2023/02/26 08:55:21;;;;;;;4.45;2.55;;;4.90;90.80;;;;;;4658393;30;20211;-82
2023/02/26 08:57:48;;;;;;;8.25;3.42;;;4.90;90.70;;;;;;4692407;30;20137;-81
2023/02/26 09:00:17;;;;;;;8.02;3.28;;;5.00;90.90;;;;;;4692770;30;21782;-81
2023/02/26 09:02:45;;;;;;;6.60;3.08;;;5.00;90.60;;;;;;4667026;30;20056;-81
2023/02/26 09:05:13;;;;;;;6.53;3.35;;;5.00;90.50;;;;;;4675265;30;20809;-81
2023/02/26 09:07:42;;;;;;;7.82;4.25;;;5.10;90.50;;;;;;4676375;30;20795;-82
2023/02/26 09:10:10;;;;;;;6.88;3.55;;;5.10;90.30;;;;;;4659636;30;20079;-81
2023/02/26 09:12:37;;;;;;;5.10;2.85;;;5.10;90.30;;;;;;4652137;30;21052;-80
2023/02/26 09:15:06;;;;;;;5.07;2.75;;;5.10;90.30;;;;;;4683468;30;20053;-81
2023/02/26 09:17:34;;;;;;;6.70;3.88;;;5.10;90.30;;;;;;4683562;30;20056;-81
2023/02/26 09:20:02;;;;;;;10.30;4.40;;;5.00;90.40;;;;;;4681167;30;20057;-80
2023/02/26 09:22:29;;;;;;;13.73;5.68;;;5.10;90.40;;;;;;4677756;30;20182;-81
2023/02/26 09:24:56;;;;;;;11.75;3.85;;;5.20;90.50;;;;;;4655163;30;22517;-80
2023/02/26 09:27:24;;;;;;;8.48;3.03;;;5.30;90.50;;;;;;4678321;30;22772;-80
2023/02/26 09:29:51;;;;;;;7.32;3.63;;;5.30;89.70;;;;;;4713164;30;20551;-78
2023/02/26 09:32:19;;;;;;;4.88;2.53;;;5.40;89.80;;;;;;4699411;30;20049;-80
2023/02/26 09:34:46;;;;;;;8.02;3.78;;;5.30;89.40;;;;;;4702832;30;20137;-80
2023/02/26 09:37:13;;;;;;;6.30;2.80;;;5.30;89.40;;;;;;4694203;30;20090;-79
2023/02/26 09:39:40;;;;;;;5.40;2.50;;;5.20;89.30;;;;;;4688191;30;20065;-79
2023/02/26 09:42:26;;;;;;;5.53;2.78;;;5.40;88.90;;;;;;4697874;30;20052;-80
2023/02/26 09:44:58;;;;;;;7.05;3.13;;;5.40;87.80;;;;;;4702169;30;20065;-79
2023/02/26 09:47:45;;;;;;;5.00;1.95;;;5.40;87.80;;;;;;4707556;30;22497;-80
2023/02/26 09:50:23;;;;;;;5.07;2.17;;;5.50;87.60;;;;;;4709196;30;20107;-79
2023/02/26 09:52:54;;;;;;;4.85;2.30;;;5.60;87.00;;;;;;4669131;30;21350;-79
2023/02/26 09:55:33;;;;;;;4.68;2.97;;;5.60;87.00;;;;;;4709859;30;20520;-79
2023/02/26 09:58:04;;;;;;;4.97;2.20;;;5.60;86.10;;;;;;4693766;30;20057;-79
2023/02/26 10:00:44;;;;;;;7.53;2.22;;;5.70;86.40;;;;;;4694582;30;20060;-80
2023/02/26 10:03:11;;;;;;;3.85;1.63;;;6.00;86.60;;;;;;4716923;30;20079;-80
2023/02/26 10:05:42;;;;;;;4.10;2.33;;;6.10;85.60;;;;;;4712179;30;20057;-80
2023/02/26 10:08:16;;;;;;;3.78;1.95;;;6.20;85.50;;;;;;4699508;30;20147;-81
2023/02/26 10:10:50;;;;;;;3.58;1.55;;;6.20;85.50;;;;;;4700909;30;20857;-80
2023/02/26 10:13:38;;;;;;;3.15;1.60;;;6.40;84.70;;;;;;4733961;30;20059;-80
2023/02/26 10:16:28;;;;;;;3.88;2.15;;;6.60;84.80;;;;;;4703351;30;20925;-80
2023/02/26 10:19:06;;;;;;;;;;;6.70;84.40;;;;;;4700003;30;20498;-80
2023/02/26 10:21:50;;;;;;;6.28;2.63;;;6.70;84.10;;;;;;4704029;30;19934;-81
2023/02/26 10:24:20;;;;;;;5.25;2.53;;;6.80;84.40;;;;;;4711687;30;20399;-80
2023/02/26 10:27:00;;;;;;;5.30;2.38;;;6.70;83.80;;;;;;4724261;30;20074;-80
2023/02/26 10:29:42;;;;;;;5.22;2.17;;;6.50;84.60;;;;;;4697772;30;20088;-81
2023/02/26 10:32:51;;;;;;;5.47;1.73;;;6.70;84.80;;;;;;4697650;30;20060;-80
2023/02/26 10:35:20;;;;;;;4.43;1.85;;;6.80;84.40;;;;;;4632273;30;20505;-79
2023/02/26 10:38:01;;;;;;;6.03;2.30;;;6.80;84.50;;;;;;4690484;30;20535;-78
2023/02/26 10:40:41;;;;;;;5.53;2.45;;;6.80;84.50;;;;;;4702969;30;20746;-79
2023/02/26 10:43:34;;;;;;;5.07;2.78;;;6.70;84.90;;;;;;4695377;30;20803;-80
2023/02/26 10:46:31;;;;;;;4.63;2.88;;;6.80;85.90;;;;;;4707298;30;20068;-81
2023/02/26 10:49:04;;;;;;;7.03;2.22;;;6.70;86.10;;;;;;4711704;30;20407;-80
2023/02/26 10:51:36;;;;;;;5.70;2.97;;;6.70;87.10;;;;;;4680678;30;20068;-80
2023/02/26 10:54:30;;;;;;;4.25;1.95;;;6.70;87.10;;;;;;4697775;30;22618;-79
2023/02/26 10:56:57;;;;;;;6.72;3.53;;;6.70;86.60;;;;;;4670511;30;20092;-80
2023/02/26 10:59:25;;;;;;;5.65;3.25;;;6.80;87.30;;;;;;4733323;30;20496;-80
2023/02/26 11:01:53;;;;;;;8.13;3.42;;;6.70;87.30;;;;;;4718316;30;20062;-80
2023/02/26 11:04:25;;;;;;;7.10;3.33;;;6.70;88.10;;;;;;4681924;30;20067;-80
2023/02/26 11:07:03;;;;;;;8.43;4.50;;;6.70;88.20;;;;;;4699828;30;22505;-81
2023/02/26 11:09:33;;;;;;;7.53;4.20;;;6.70;88.70;;;;;;4700711;30;20722;-81
2023/02/26 11:12:16;;;;;;;6.18;4.10;;;6.60;88.20;;;;;;4695875;30;20407;-81
2023/02/26 11:14:46;;;;;;;6.97;4.68;;;6.60;88.90;;;;;;4699870;30;20053;-81
2023/02/26 11:17:26;;;;;;;6.20;3.92;;;6.60;88.90;;;;;;4690349;30;20057;-81
2023/02/26 11:20:04;;;;;;;7.00;4.30;;;6.50;89.20;;;;;;4716625;30;20076;-80
2023/02/26 11:22:35;;;;;;;11.00;4.97;;;6.50;89.00;;;;;;4733974;30;20052;-81
2023/02/26 11:25:04;;;;;;;8.68;4.80;;;6.50;89.90;;;;;;4701756;30;20057;-81
2023/02/26 11:27:36;;;;;;;6.93;4.30;;;6.40;90.40;;;;;;4714287;30;20067;-80
2023/02/26 11:30:14;;;;;;;7.93;5.15;;;6.50;90.50;;;;;;4716735;30;22791;-80
2023/02/26 11:32:44;;;;;;;8.57;4.68;;;6.50;90.70;;;;;;4702276;30;20075;-82
2023/02/26 11:35:14;;;;;;;8.90;4.82;;;6.50;90.90;;;;;;4716835;30;20063;-81
2023/02/26 11:37:47;;;;;;;10.25;4.70;;;6.50;90.90;;;;;;4711462;30;20136;-78
2023/02/26 11:40:22;;;;;;;9.75;5.35;;;6.50;90.60;;;;;;4690585;30;20991;-81
2023/02/26 11:42:54;;;;;;;10.20;5.40;;;6.30;90.60;;;;;;4697411;30;20065;-81
2023/02/26 11:45:24;;;;;;;7.97;4.85;;;6.40;90.70;;;;;;4672214;30;20061;-80
2023/02/26 11:48:02;;;;;;;7.47;4.25;;;6.40;90.60;;;;;;4690525;30;24129;-81
2023/02/26 11:50:45;;;;;;;6.22;3.75;;;6.40;90.50;;;;;;4713438;30;20064;-79
2023/02/26 11:53:20;;;;;;;7.03;4.10;;;6.50;90.40;;;;;;4697623;30;20183;-81
2023/02/26 11:55:52;;;;;;;9.07;4.90;;;6.50;90.50;;;;;;4735312;30;20053;-81
2023/02/26 11:58:23;;;;;;;8.68;4.78;;;6.50;90.90;;;;;;4738985;30;20048;-81
2023/02/26 12:00:58;;;;;;;7.35;4.65;;;6.50;90.70;;;;;;4696727;30;20060;-81
2023/02/26 12:03:30;;;;;;;8.18;4.53;;;6.70;91.10;;;;;;4700689;30;20352;-81
2023/02/26 12:06:00;;;;;;;7.22;4.25;;;6.70;90.50;;;;;;4703173;30;20068;-79
2023/02/26 12:08:37;;;;;;;8.85;5.10;;;6.80;90.50;;;;;;4701036;30;20486;-80
2023/02/26 12:11:43;;;;;;;9.05;5.28;;;6.80;90.60;;;;;;4698217;30;20099;-80
2023/02/26 12:14:17;;;;;;;8.10;4.75;;;6.80;90.20;;;;;;4689287;30;20065;-81
2023/02/26 12:16:48;;;;;;;10.13;5.82;;;6.80;90.10;;;;;;4695574;30;22612;-82
2023/02/26 12:19:45;;;;;;;17.48;5.88;;;6.80;90.30;;;;;;4721524;30;20067;-82
2023/02/26 12:22:31;;;;;;;15.68;7.07;;;6.70;90.40;;;;;;4681931;30;20064;-82
2023/02/26 12:25:08;;;;;;;12.80;5.78;;;6.60;90.30;;;;;;4673772;30;20068;-81
2023/02/26 12:27:41;;;;;;;8.57;5.47;;;6.50;90.60;;;;;;4686147;30;22423;-82
2023/02/26 12:30:35;;;;;;;8.90;5.35;;;6.50;90.90;;;;;;4705856;30;20080;-81
2023/02/26 12:33:24;;;;;;;11.55;5.53;;;6.60;91.00;;;;;;4696224;30;22740;-80
2023/02/26 12:36:15;;;;;;;25.13;10.30;;;6.50;90.90;;;;;;4687594;30;20061;-80
2023/02/26 12:38:56;;;;;;;10.63;4.90;;;6.60;91.00;;;;;;4684012;30;20143;-80
2023/02/26 12:42:09;;;;;;;9.95;4.93;;;6.70;90.70;;;;;;4686975;30;22466;-80
2023/02/26 12:45:05;;;;;;;8.73;4.75;;;6.70;90.50;;;;;;4672714;30;20072;-79
2023/02/26 12:47:32;;;;;;;7.95;4.50;;;6.60;90.60;;;;;;4706433;30;20061;-80
2023/02/26 12:50:18;;;;;;;9.43;4.65;;;6.50;90.60;;;;;;4692943;30;20068;-80
2023/02/26 12:53:13;;;;;;;18.10;8.02;;;6.50;90.50;;;;;;4739342;30;21056;-80
2023/02/26 12:56:12;;;;;;;;;;;6.40;90.80;;;;;;4693837;30;20080;-80
2023/02/26 12:58:46;;;;;;;11.55;5.57;;;6.30;91.20;;;;;;4649218;30;22337;-80
2023/02/26 13:01:26;;;;;;;7.85;4.95;;;6.20;91.50;;;;;;4692661;30;22849;-80
2023/02/26 13:04:08;;;;;;;10.27;5.38;;;6.20;92.00;;;;;;4694488;30;20161;-80
2023/02/26 13:07:15;;;;;;;14.63;7.65;;;6.20;92.20;;;;;;4692104;30;20064;-80
2023/02/26 13:10:04;;;;;;;11.35;5.05;;;6.10;92.40;;;;;;4672831;30;20482;-80
2023/02/26 13:12:37;;;;;;;8.73;4.15;;;6.20;92.40;;;;;;4682715;30;20076;-80
2023/02/26 13:15:14;;;;;;;10.40;4.65;;;6.20;92.30;;;;;;4693114;30;20137;-80
2023/02/26 13:18:07;;;;;;;10.63;4.43;;;6.20;92.30;;;;;;4691492;30;20422;-80
2023/02/26 13:20:37;;;;;;;8.02;4.22;;;6.20;92.40;;;;;;4691527;30;20889;-80
2023/02/26 13:24:04;;;;;;;7.82;4.47;;;6.20;92.30;;;;;;4685166;30;20065;-80
2023/02/26 13:26:34;;;;;;;7.05;3.90;;;6.30;92.10;;;;;;4669902;30;20151;-80
2023/02/26 13:29:15;;;;;;;8.85;4.55;;;6.30;91.90;;;;;;4645316;30;20103;-80
2023/02/26 13:32:05;;;;;;;11.07;5.32;;;6.30;92.10;;;;;;4658183;30;20861;-80